| time (UTC) | temp F | wind direction | speed MPH | gust MPH | rain 1hr in | rain 24hr in | rain mn in | humidity % | barometer mb |
| 20260507193052 | 66 | 287 | 6.0 | 7.0 | 0.00 | 0.36 | 0.36 | 30 | 1006.4 |
| 20260507192548 | 66 | 286 | 2.0 | 2.0 | 0.00 | 0.36 | 0.36 | 34 | 1006.6 |
| 20260507192045 | 65 | 314 | 1.0 | 2.0 | 0.00 | 0.36 | 0.36 | 34 | 1006.5 |
| 20260507191540 | 66 | 287 | 3.0 | 3.0 | 0.00 | 0.36 | 0.36 | 30 | 1006.6 |
| 20260507191038 | 66 | 194 | 2.0 | 2.0 | 0.00 | 0.36 | 0.36 | 32 | 1006.8 |
| 20260507190534 | 65 | 303 | 2.0 | 2.0 | 0.00 | 0.36 | 0.36 | 31 | 1006.8 |
| 20260507190033 | 65 | 37 | 1.0 | 3.0 | 0.00 | 0.36 | 0.36 | 37 | 1006.7 |
| 20260507185531 | 66 | 180 | 1.0 | 1.0 | 0.00 | 0.36 | 0.36 | 33 | 1006.6 |
| 20260507185027 | 65 | 44 | 1.0 | 2.0 | 0.00 | 0.36 | 0.36 | 37 | 1006.7 |
| 20260507184526 | 64 | 145 | 0.0 | 0.0 | 0.00 | 0.36 | 0.36 | 33 | 1006.9 |
| 20260507184024 | 65 | 274 | 4.0 | 7.0 | 0.00 | 0.36 | 0.36 | 31 | 1007.1 |
| 20260507183519 | 64 | 265 | 2.0 | 2.0 | 0.00 | 0.36 | 0.36 | 34 | 1007.0 |
| 20260507183017 | 63 | 227 | 3.0 | 4.0 | 0.00 | 0.36 | 0.36 | 33 | 1007.3 |
| 20260507182513 | 64 | 250 | 4.0 | 4.0 | 0.00 | 0.36 | 0.36 | 33 | 1007.3 |
| 20260507182009 | 64 | 288 | 5.0 | 7.0 | 0.00 | 0.36 | 0.36 | 33 | 1007.3 |
| 20260507181506 | 64 | 286 | 2.0 | 3.0 | 0.00 | 0.36 | 0.36 | 40 | 1007.3 |
| 20260507181001 | 64 | 198 | 2.0 | 2.0 | 0.00 | 0.36 | 0.36 | 32 | 1007.4 |
| 20260507180458 | 64 | 226 | 3.0 | 4.0 | 0.00 | 0.36 | 0.36 | 34 | 1007.5 |
| 20260507175954 | 63 | 202 | 4.0 | 4.0 | 0.00 | 0.36 | 0.36 | 32 | 1007.6 |
| 20260507175451 | 63 | 132 | 2.0 | 4.0 | 0.00 | 0.36 | 0.36 | 34 | 1007.4 |
| 20260507174949 | 63 | 6 | 1.0 | 2.0 | 0.00 | 0.36 | 0.36 | 36 | 1007.4 |
| 20260507174446 | 63 | 151 | 1.0 | 1.0 | 0.00 | 0.36 | 0.36 | 37 | 1007.5 |
| 20260507173943 | 63 | 19 | 1.0 | 2.0 | 0.00 | 0.36 | 0.36 | 33 | 1007.5 |
| 20260507173440 | 62 | 172 | 1.0 | 1.0 | 0.00 | 0.36 | 0.36 | 34 | 1007.6 |
| 20260507172937 | 62 | 195 | 2.0 | 3.0 | 0.00 | 0.36 | 0.36 | 33 | 1007.6 |
| 20260507172434 | 62 | 210 | 2.0 | 2.0 | 0.00 | 0.36 | 0.36 | 33 | 1007.6 |
| 20260507171930 | 61 | 274 | 2.0 | 3.0 | 0.00 | 0.36 | 0.36 | 33 | 1007.7 |
| 20260507171426 | 62 | 313 | 5.0 | 7.0 | 0.00 | 0.36 | 0.36 | 35 | 1007.7 |
| 20260507170924 | 63 | 214 | 2.0 | 3.0 | 0.00 | 0.36 | 0.36 | 36 | 1007.9 |
| 20260507170420 | 62 | 38 | 0.0 | 1.0 | 0.00 | 0.36 | 0.36 | 44 | 1007.9 |
| 20260507165916 | 62 | 255 | 4.0 | 7.0 | 0.00 | 0.36 | 0.36 | 36 | 1008.0 |
| 20260507165412 | 62 | 232 | 2.0 | 4.0 | 0.00 | 0.36 | 0.36 | 42 | 1008.0 |
| 20260507164908 | 62 | 259 | 3.0 | 4.0 | 0.00 | 0.36 | 0.36 | 40 | 1007.9 |
| 20260507164406 | 62 | 143 | 2.0 | 3.0 | 0.00 | 0.36 | 0.36 | 41 | 1008.3 |
| 20260507163903 | 62 | 238 | 0.0 | 1.0 | 0.00 | 0.36 | 0.36 | 43 | 1008.1 |
| 20260507163401 | 62 | 216 | 5.0 | 8.0 | 0.00 | 0.36 | 0.36 | 40 | 1008.0 |
| 20260507162857 | 62 | 216 | 2.0 | 2.0 | 0.00 | 0.36 | 0.36 | 40 | 1008.0 |
| 20260507162352 | 62 | 262 | 2.0 | 3.0 | 0.00 | 0.36 | 0.36 | 43 | 1008.3 |
| 20260507161849 | 63 | 269 | 3.0 | 4.0 | 0.00 | 0.36 | 0.36 | 51 | 1008.3 |
| 20260507161346 | 63 | 201 | 1.0 | 2.0 | 0.00 | 0.36 | 0.36 | 49 | 1008.3 |
| 20260507160842 | 62 | 104 | 1.0 | 2.0 | 0.00 | 0.36 | 0.36 | 49 | 1008.2 |
| 20260507160338 | 61 | 210 | 3.0 | 4.0 | 0.00 | 0.36 | 0.36 | 49 | 1008.4 |
| 20260507155835 | 62 | 205 | 2.0 | 3.0 | 0.00 | 0.36 | 0.36 | 54 | 1008.4 |
| 20260507155330 | 62 | 149 | 1.0 | 1.0 | 0.00 | 0.36 | 0.36 | 54 | 1008.7 |
| 20260507154827 | 62 | 124 | 0.0 | 1.0 | 0.00 | 0.36 | 0.36 | 53 | 1008.6 |
| 20260507154325 | 61 | 223 | 0.0 | 1.0 | 0.00 | 0.36 | 0.36 | 53 | 1008.6 |
| 20260507153821 | 61 | 316 | 2.0 | 3.0 | 0.00 | 0.36 | 0.36 | 59 | 1008.6 |
| 20260507153318 | 61 | 219 | 2.0 | 3.0 | 0.00 | 0.36 | 0.36 | 58 | 1008.6 |
| 20260507152815 | 61 | 153 | 0.0 | 1.0 | 0.00 | 0.36 | 0.36 | 61 | 1008.7 |
| 20260507152311 | 61 | 236 | 2.0 | 2.0 | 0.00 | 0.36 | 0.36 | 59 | 1008.9 |
| 20260507151807 | 60 | 263 | 3.0 | 3.0 | 0.00 | 0.36 | 0.36 | 58 | 1008.8 |
| 20260507151303 | 61 | 233 | 2.0 | 2.0 | 0.00 | 0.36 | 0.36 | 59 | 1008.7 |
| 20260507150800 | 61 | 207 | 3.0 | 3.0 | 0.00 | 0.36 | 0.36 | 64 | 1008.8 |
| 20260507150257 | 59 | 164 | 1.0 | 1.0 | 0.00 | 0.36 | 0.36 | 66 | 1008.7 |
| 20260507145753 | 58 | 226 | 1.0 | 2.0 | 0.00 | 0.36 | 0.36 | 65 | 1009.0 |
| 20260507145249 | 58 | 47 | 2.0 | 2.0 | 0.00 | 0.36 | 0.36 | 66 | 1009.0 |
| 20260507144747 | 59 | 132 | 0.0 | 0.0 | 0.00 | 0.36 | 0.36 | 65 | 1009.0 |
| 20260507144244 | 59 | 32 | 1.0 | 1.0 | 0.00 | 0.36 | 0.36 | 68 | 1009.0 |
| 20260507143740 | 59 | 167 | 2.0 | 4.0 | 0.00 | 0.36 | 0.36 | 62 | 1009.0 |
| 20260507143238 | 59 | 262 | 0.0 | 1.0 | 0.00 | 0.36 | 0.36 | 61 | 1009.1 |
| 20260507142734 | 59 | 128 | 0.0 | 0.0 | 0.00 | 0.36 | 0.36 | 69 | 1009.1 |
| 20260507142230 | 59 | 74 | 2.0 | 2.0 | 0.00 | 0.36 | 0.36 | 69 | 1008.9 |
| 20260507141727 | 59 | 179 | 1.0 | 1.0 | 0.00 | 0.36 | 0.36 | 66 | 1009.1 |
| 20260507141224 | 59 | 242 | 2.0 | 3.0 | 0.00 | 0.36 | 0.36 | 68 | 1009.0 |
| 20260507140720 | 58 | 59 | 1.0 | 1.0 | 0.00 | 0.36 | 0.36 | 72 | 1009.2 |
| 20260507140218 | 57 | 52 | 2.0 | 2.0 | 0.00 | 0.36 | 0.36 | 73 | 1009.2 |
| 20260507135714 | 58 | 225 | 4.0 | 4.0 | 0.00 | 0.36 | 0.36 | 73 | 1009.1 |
| 20260507135212 | 58 | 268 | 2.0 | 2.0 | 0.00 | 0.36 | 0.36 | 73 | 1009.1 |
| 20260507134708 | 56 | 105 | 0.0 | 1.0 | 0.00 | 0.36 | 0.36 | 77 | 1009.4 |
| 20260507134204 | 55 | 176 | 1.0 | 2.0 | 0.00 | 0.36 | 0.36 | 76 | 1009.0 |
| 20260507133700 | 55 | 230 | 1.0 | 2.0 | 0.00 | 0.36 | 0.36 | 78 | 1009.0 |
| 20260507133158 | 54 | 173 | 0.0 | 1.0 | 0.00 | 0.36 | 0.36 | 81 | 1009.3 |
| 20260507132655 | 55 | 241 | 2.0 | 2.0 | 0.00 | 0.36 | 0.36 | 80 | 1009.4 |
| 20260507132151 | 55 | 84 | 0.0 | 1.0 | 0.00 | 0.36 | 0.36 | 83 | 1009.6 |
| 20260507131648 | 54 | 294 | 1.0 | 1.0 | 0.00 | 0.36 | 0.36 | 84 | 1009.3 |
| 20260507131145 | 53 | 246 | 1.0 | 2.0 | 0.00 | 0.36 | 0.36 | 85 | 1009.5 |
| 20260507130642 | 53 | 13 | 1.0 | 1.0 | 0.00 | 0.36 | 0.36 | 85 | 1009.3 |
| 20260507130140 | 53 | 57 | 1.0 | 1.0 | 0.00 | 0.36 | 0.36 | 88 | 1009.2 |
| 20260507125638 | 52 | 102 | 0.0 | 0.0 | 0.00 | 0.36 | 0.36 | 90 | 1009.4 |
| 20260507125136 | 52 | 324 | 2.0 | 2.0 | 0.00 | 0.36 | 0.36 | 91 | 1009.2 |
| 20260507124632 | 51 | 275 | 2.0 | 2.0 | 0.00 | 0.36 | 0.36 | 93 | 1009.3 |
| 20260507124130 | 51 | 136 | 0.0 | 1.0 | 0.00 | 0.36 | 0.36 | 95 | 1009.3 |
| 20260507123628 | 51 | 161 | 0.0 | 0.0 | 0.00 | 0.36 | 0.36 | 95 | 1009.5 |
| 20260507123124 | 51 | 203 | 0.0 | 1.0 | 0.00 | 0.36 | 0.36 | 95 | 1009.7 |
| 20260507122619 | 51 | 246 | 1.0 | 1.0 | 0.00 | 0.36 | 0.36 | 96 | 1009.3 |
| 20260507122116 | 51 | 139 | 0.0 | 0.0 | 0.00 | 0.36 | 0.36 | 96 | 1009.2 |
| 20260507121612 | 50 | 219 | 1.0 | 1.0 | 0.00 | 0.36 | 0.36 | 96 | 1009.9 |
| 20260507121108 | 51 | 197 | 0.0 | 1.0 | 0.00 | 0.36 | 0.36 | 96 | 1009.6 |
| 20260507120604 | 50 | 184 | 0.0 | 0.0 | 0.00 | 0.36 | 0.36 | 96 | 1009.6 |
| 20260507120101 | 50 | 180 | 0.0 | 0.0 | 0.00 | 0.36 | 0.36 | 96 | 1009.5 |
| 20260507115557 | 50 | 225 | 0.0 | 0.0 | 0.00 | 0.36 | 0.36 | 96 | 1009.3 |
| 20260507115053 | 50 | 171 | 0.0 | 0.0 | 0.00 | 0.36 | 0.36 | 96 | 1009.3 |
| 20260507114549 | 50 | 230 | 0.0 | 0.0 | 0.00 | 0.36 | 0.36 | 96 | 1009.1 |
| 20260507114047 | 49 | 173 | 0.0 | 0.0 | 0.00 | 0.36 | 0.36 | 96 | 1009.4 |
| 20260507113543 | 49 | 167 | 0.0 | 0.0 | 0.07 | 0.36 | 0.36 | 96 | 1009.2 |
| 20260507113041 | 49 | 168 | 0.0 | 0.0 | 0.07 | 0.36 | 0.36 | 96 | 1008.8 |
| 20260507112538 | 49 | 154 | 0.0 | 0.0 | 0.05 | 0.35 | 0.35 | 96 | 1009.0 |
| 20260507112035 | 49 | 129 | 0.0 | 0.0 | 0.05 | 0.35 | 0.35 | 96 | 1009.1 |
| 20260507111532 | 49 | 182 | 0.0 | 0.0 | 0.00 | 0.34 | 0.34 | 96 | 1009.6 |
| 20260507111029 | 49 | 196 | 0.0 | 0.0 | 0.07 | 0.34 | 0.34 | 96 | 1009.4 |
| 20260507110525 | 49 | 145 | 0.0 | 0.0 | 0.12 | 0.34 | 0.34 | 96 | 1009.0 |
| 20260507110021 | 49 | 155 | 0.0 | 0.0 | 0.12 | 0.33 | 0.33 | 96 | 1009.1 |
| 20260507105519 | 48 | 131 | 0.0 | 0.0 | 0.07 | 0.32 | 0.32 | 96 | 1009.2 |
| 20260507105014 | 48 | 239 | 0.0 | 0.0 | 0.00 | 0.31 | 0.31 | 96 | 1009.3 |
| 20260507104512 | 49 | 164 | 0.0 | 0.0 | 0.00 | 0.31 | 0.31 | 96 | 1008.8 |
| 20260507104008 | 49 | 146 | 0.0 | 0.0 | 0.00 | 0.31 | 0.31 | 96 | 1008.6 |
| 20260507103505 | 48 | 115 | 0.0 | 0.0 | 0.00 | 0.31 | 0.31 | 96 | 1008.5 |
| 20260507103001 | 48 | 145 | 0.0 | 0.0 | 0.05 | 0.31 | 0.31 | 96 | 1008.4 |
| 20260507102458 | 48 | 122 | 0.0 | 0.0 | 0.05 | 0.31 | 0.31 | 96 | 1008.3 |
| 20260507101954 | 48 | 148 | 0.0 | 0.0 | 0.05 | 0.31 | 0.31 | 96 | 1008.8 |
| 20260507101449 | 49 | 165 | 0.0 | 0.0 | 0.00 | 0.30 | 0.30 | 96 | 1008.9 |
| 20260507100946 | 49 | 124 | 0.0 | 0.0 | 0.00 | 0.30 | 0.30 | 96 | 1008.9 |
| 20260507100444 | 49 | 111 | 0.0 | 0.0 | 0.00 | 0.30 | 0.30 | 96 | 1009.0 |
| 20260507095942 | 49 | 152 | 0.0 | 0.0 | 0.00 | 0.30 | 0.30 | 96 | 1009.2 |
| 20260507095439 | 49 | 147 | 0.0 | 0.0 | 0.07 | 0.30 | 0.30 | 96 | 1008.9 |
| 20260507094936 | 49 | 154 | 0.0 | 0.0 | 0.07 | 0.30 | 0.30 | 96 | 1008.7 |
| 20260507094432 | 49 | 103 | 1.0 | 1.0 | 0.05 | 0.29 | 0.29 | 95 | 1008.6 |
| 20260507093929 | 49 | 125 | 0.0 | 0.0 | 0.00 | 0.28 | 0.28 | 95 | 1008.5 |
| 20260507093427 | 49 | 155 | 0.0 | 0.0 | 0.00 | 0.28 | 0.28 | 95 | 1008.5 |
| 20260507092925 | 49 | 137 | 0.0 | 0.0 | 0.00 | 0.28 | 0.28 | 95 | 1008.5 |
| 20260507092421 | 50 | 107 | 1.0 | 1.0 | 0.00 | 0.28 | 0.28 | 95 | 1008.6 |
| 20260507091918 | 50 | 137 | 0.0 | 0.0 | 0.07 | 0.28 | 0.28 | 95 | 1008.4 |
| 20260507091414 | 50 | 128 | 0.0 | 0.0 | 0.07 | 0.28 | 0.28 | 95 | 1008.0 |
| 20260507090910 | 50 | 157 | 0.0 | 0.0 | 0.05 | 0.27 | 0.27 | 95 | 1008.4 |
| 20260507090406 | 50 | 127 | 0.0 | 0.0 | 0.05 | 0.27 | 0.27 | 95 | 1008.5 |
| 20260507085903 | 50 | 132 | 0.0 | 1.0 | 0.00 | 0.26 | 0.26 | 95 | 1008.8 |
| 20260507085400 | 50 | 160 | 0.0 | 0.0 | 0.00 | 0.26 | 0.26 | 95 | 1008.3 |
| 20260507084858 | 50 | 182 | 0.0 | 0.0 | 0.00 | 0.26 | 0.26 | 95 | 1008.2 |
| 20260507084354 | 50 | 168 | 0.0 | 0.0 | 0.07 | 0.26 | 0.26 | 95 | 1007.9 |
| 20260507083851 | 50 | 114 | 0.0 | 0.0 | 0.12 | 0.26 | 0.26 | 94 | 1008.0 |
| 20260507083347 | 50 | 145 | 0.0 | 1.0 | 0.05 | 0.25 | 0.25 | 94 | 1008.4 |
| 20260507082844 | 50 | 107 | 0.0 | 1.0 | 0.14 | 0.24 | 0.24 | 94 | 1007.9 |
| 20260507082339 | 50 | 151 | 0.0 | 0.0 | 0.14 | 0.24 | 0.24 | 94 | 1008.2 |
| 20260507081837 | 50 | 85 | 0.0 | 1.0 | 0.07 | 0.23 | 0.23 | 93 | 1007.8 |
| 20260507081332 | 50 | 121 | 1.0 | 1.0 | 0.12 | 0.22 | 0.22 | 93 | 1008.3 |
| 20260507080830 | 51 | 58 | 0.0 | 0.0 | 0.28 | 0.22 | 0.22 | 93 | 1007.5 |
| 20260507080326 | 51 | 20 | 3.0 | 3.0 | 0.47 | 0.20 | 0.20 | 93 | 1008.2 |
| 20260507075821 | 51 | 167 | 0.0 | 1.0 | 0.42 | 0.17 | 0.17 | 92 | 1008.5 |
| 20260507075318 | 52 | 88 | 1.0 | 1.0 | 0.38 | 0.13 | 0.13 | 91 | 1008.3 |
| 20260507074814 | 53 | 91 | 2.0 | 2.0 | 0.38 | 0.11 | 0.11 | 91 | 1008.8 |
| 20260507074312 | 54 | 229 | 3.0 | 3.0 | 0.17 | 0.07 | 0.07 | 91 | 1008.3 |
| 20260507073809 | 54 | 78 | 1.0 | 1.0 | 0.28 | 0.05 | 0.05 | 91 | 1008.2 |
| 20260507073305 | 55 | 161 | 1.0 | 2.0 | 0.24 | 0.04 | 0.04 | 90 | 1007.7 |
| 20260507072803 | 55 | 297 | 2.0 | 2.0 | 0.05 | 0.01 | 0.01 | 88 | 1007.4 |
| 20260507072300 | 55 | 200 | 1.0 | 2.0 | 0.00 | 0.00 | 0.00 | 90 | 1007.5 |
| 20260507071757 | 55 | 132 | 0.0 | 0.0 | 0.00 | 0.00 | 0.00 | 92 | 1006.8 |
| 20260507071254 | 55 | 96 | 0.0 | 0.0 | 0.00 | 0.00 | 0.00 | 94 | 1006.8 |
| 20260507070751 | 55 | 45 | 0.0 | 1.0 | 0.00 | 0.00 | 0.00 | 95 | 1007.1 |
| 20260507070248 | 55 | 127 | 0.0 | 1.0 | 0.00 | 0.00 | 0.00 | 96 | 1007.0 |
| 20260507065744 | 56 | 61 | 0.0 | 0.0 | 0.00 | 0.00 | 0.00 | 96 | 1006.8 |
| 20260507065241 | 56 | 59 | 1.0 | 1.0 | 0.00 | 0.00 | 0.00 | 97 | 1006.8 |
| 20260507064738 | 56 | 161 | 0.0 | 0.0 | 0.00 | 0.00 | 0.00 | 97 | 1007.1 |
| 20260507064237 | 56 | 178 | 0.0 | 0.0 | 0.00 | 0.00 | 0.00 | 97 | 1007.2 |
| 20260507063734 | 56 | 218 | 1.0 | 1.0 | 0.00 | 0.00 | 0.00 | 97 | 1006.9 |
| 20260507063231 | 56 | 180 | 0.0 | 0.0 | 0.00 | 0.00 | 0.00 | 97 | 1007.2 |
| 20260507062728 | 56 | 171 | 0.0 | 0.0 | 0.00 | 0.00 | 0.00 | 97 | 1007.1 |
| 20260507062225 | 56 | 173 | 0.0 | 0.0 | 0.00 | 0.00 | 0.00 | 97 | 1007.1 |
| 20260507061723 | 56 | 173 | 0.0 | 0.0 | 0.00 | 0.00 | 0.00 | 97 | 1007.2 |
| 20260507061221 | 56 | 166 | 0.0 | 0.0 | 0.00 | 0.00 | 0.00 | 97 | 1007.3 |
| 20260507060719 | 56 | 166 | 0.0 | 0.0 | 0.00 | 0.00 | 0.00 | 97 | 1007.0 |
| 20260507060215 | 56 | 166 | 0.0 | 0.0 | 0.00 | 0.00 | 0.00 | 97 | 1007.0 |
| 20260507055711 | 56 | 176 | 0.0 | 0.0 | 0.00 | 0.00 | 0.00 | 97 | 1007.2 |
| 20260507055207 | 56 | 177 | 0.0 | 0.0 | 0.00 | 0.00 | 0.00 | 97 | 1007.3 |
| 20260507054703 | 56 | 176 | 0.0 | 0.0 | 0.00 | 0.00 | 0.00 | 97 | 1007.4 |
| 20260507054200 | 56 | 169 | 0.0 | 0.0 | 0.00 | 0.00 | 0.00 | 97 | 1007.5 |
| 20260507053658 | 56 | 174 | 0.0 | 0.0 | 0.00 | 0.00 | 0.00 | 97 | 1007.7 |
| 20260507053156 | 56 | 190 | 0.0 | 0.0 | 0.00 | 0.00 | 0.00 | 97 | 1007.8 |
| 20260507052654 | 56 | 171 | 0.0 | 0.0 | 0.00 | 0.00 | 0.00 | 97 | 1007.8 |
| 20260507052149 | 56 | 177 | 0.0 | 0.0 | 0.00 | 0.00 | 0.00 | 97 | 1007.6 |
| 20260507051648 | 56 | 168 | 0.0 | 0.0 | 0.00 | 0.00 | 0.00 | 96 | 1007.6 |
| 20260507051144 | 56 | 189 | 0.0 | 0.0 | 0.00 | 0.00 | 0.00 | 97 | 1007.7 |
| 20260507050641 | 56 | 190 | 0.0 | 0.0 | 0.00 | 0.00 | 0.00 | 96 | 1007.8 |
| 20260507050138 | 56 | 205 | 0.0 | 1.0 | 0.00 | 0.00 | 0.00 | 96 | 1007.9 |
| 20260507045635 | 56 | 178 | 0.0 | 0.0 | 0.00 | 0.00 | 0.00 | 96 | 1007.9 |
| 20260507045131 | 56 | 194 | 0.0 | 0.0 | 0.00 | 0.00 | 0.00 | 96 | 1007.8 |
| 20260507044628 | 56 | 202 | 1.0 | 1.0 | 0.00 | 0.00 | 0.00 | 96 | 1007.9 |
| 20260507044125 | 56 | 189 | 0.0 | 0.0 | 0.00 | 0.00 | 0.00 | 96 | 1007.9 |
| 20260507043621 | 56 | 203 | 0.0 | 1.0 | 0.00 | 0.00 | 0.00 | 96 | 1007.8 |
| 20260507043118 | 56 | 215 | 1.0 | 1.0 | 0.00 | 0.00 | 0.00 | 96 | 1008.0 |
| 20260507042614 | 56 | 194 | 0.0 | 1.0 | 0.00 | 0.00 | 0.00 | 96 | 1008.0 |
| 20260507042110 | 56 | 203 | 2.0 | 3.0 | 0.00 | 0.00 | 0.00 | 96 | 1007.9 |
| 20260507041607 | 56 | 207 | 0.0 | 1.0 | 0.00 | 0.00 | 0.00 | 96 | 1007.8 |
| 20260507041104 | 56 | 188 | 0.0 | 0.0 | 0.00 | 0.00 | 0.00 | 96 | 1007.6 |
| 20260507040600 | 56 | 220 | 1.0 | 1.0 | 0.00 | 0.00 | 0.00 | 96 | 1007.7 |
| 20260507040057 | 56 | 174 | 0.0 | 1.0 | 0.00 | 0.00 | 0.00 | 96 | 1007.8 |
| 20260507035553 | 56 | 205 | 1.0 | 1.0 | 0.00 | 0.02 | 0.02 | 96 | 1007.7 |
| 20260507035049 | 56 | 190 | 0.0 | 0.0 | 0.00 | 0.02 | 0.02 | 96 | 1007.6 |
| 20260507034546 | 56 | 205 | 1.0 | 1.0 | 0.00 | 0.02 | 0.02 | 96 | 1007.8 |
| 20260507034044 | 56 | 196 | 1.0 | 1.0 | 0.00 | 0.02 | 0.02 | 96 | 1007.6 |
| 20260507033542 | 56 | 200 | 1.0 | 2.0 | 0.00 | 0.02 | 0.02 | 96 | 1008.0 |
| 20260507033039 | 56 | 220 | 1.0 | 2.0 | 0.00 | 0.02 | 0.02 | 96 | 1008.0 |
| 20260507032535 | 56 | 235 | 1.0 | 1.0 | 0.00 | 0.02 | 0.02 | 96 | 1008.1 |
| 20260507032032 | 56 | 242 | 2.0 | 2.0 | 0.00 | 0.02 | 0.02 | 96 | 1008.2 |
| 20260507031528 | 56 | 199 | 1.0 | 2.0 | 0.00 | 0.02 | 0.02 | 96 | 1008.0 |
| 20260507031026 | 56 | 198 | 0.0 | 1.0 | 0.00 | 0.02 | 0.02 | 96 | 1007.9 |
| 20260507030522 | 56 | 232 | 1.0 | 1.0 | 0.00 | 0.02 | 0.02 | 96 | 1007.9 |
| 20260507030020 | 56 | 187 | 1.0 | 1.0 | 0.00 | 0.02 | 0.02 | 96 | 1008.0 |
| 20260507025516 | 56 | 231 | 1.0 | 1.0 | 0.00 | 0.02 | 0.02 | 96 | 1007.9 |
| 20260507025014 | 56 | 218 | 2.0 | 2.0 | 0.00 | 0.02 | 0.02 | 96 | 1007.9 |
| 20260507024512 | 56 | 211 | 1.0 | 2.0 | 0.00 | 0.02 | 0.02 | 96 | 1007.8 |
| 20260507024008 | 56 | 211 | 2.0 | 3.0 | 0.00 | 0.02 | 0.02 | 96 | 1007.9 |
| 20260507023504 | 56 | 221 | 2.0 | 3.0 | 0.00 | 0.02 | 0.02 | 96 | 1007.9 |
| 20260507023001 | 56 | 231 | 2.0 | 3.0 | 0.00 | 0.02 | 0.02 | 96 | 1008.1 |
| 20260507022458 | 56 | 244 | 2.0 | 2.0 | 0.00 | 0.02 | 0.02 | 96 | 1008.2 |
| 20260507021954 | 56 | 244 | 2.0 | 2.0 | 0.00 | 0.02 | 0.02 | 96 | 1007.8 |
| 20260507021450 | 56 | 221 | 2.0 | 2.0 | 0.00 | 0.02 | 0.02 | 96 | 1007.9 |
| 20260507020947 | 56 | 191 | 3.0 | 3.0 | 0.00 | 0.02 | 0.02 | 96 | 1008.1 |
| 20260507020444 | 56 | 239 | 2.0 | 2.0 | 0.00 | 0.02 | 0.02 | 96 | 1008.0 |
| 20260507015941 | 56 | 168 | 1.0 | 2.0 | 0.00 | 0.02 | 0.02 | 96 | 1008.2 |
| 20260507015439 | 56 | 188 | 0.0 | 1.0 | 0.00 | 0.02 | 0.02 | 96 | 1008.1 |
| 20260507014936 | 56 | 220 | 2.0 | 4.0 | 0.00 | 0.02 | 0.02 | 95 | 1008.0 |
| 20260507014433 | 56 | 184 | 2.0 | 2.0 | 0.00 | 0.02 | 0.02 | 95 | 1008.0 |
| 20260507013929 | 56 | 240 | 3.0 | 4.0 | 0.00 | 0.02 | 0.02 | 95 | 1008.2 |
| 20260507013426 | 56 | 212 | 1.0 | 2.0 | 0.00 | 0.02 | 0.02 | 95 | 1008.1 |
| 20260507012923 | 56 | 207 | 2.0 | 2.0 | 0.00 | 0.02 | 0.02 | 95 | 1008.1 |
| 20260507012420 | 56 | 216 | 2.0 | 2.0 | 0.00 | 0.02 | 0.02 | 95 | 1008.3 |
| 20260507011917 | 56 | 201 | 2.0 | 2.0 | 0.00 | 0.02 | 0.02 | 96 | 1008.3 |
| 20260507011414 | 56 | 236 | 2.0 | 2.0 | 0.00 | 0.02 | 0.02 | 96 | 1008.5 |
| 20260507010913 | 56 | 244 | 2.0 | 2.0 | 0.00 | 0.02 | 0.02 | 96 | 1008.3 |
| 20260507010409 | 56 | 202 | 2.0 | 2.0 | 0.00 | 0.02 | 0.02 | 96 | 1008.5 |
| 20260507005906 | 56 | 194 | 2.0 | 2.0 | 0.00 | 0.02 | 0.02 | 96 | 1008.5 |
| 20260507005403 | 56 | 147 | 2.0 | 3.0 | 0.00 | 0.02 | 0.02 | 96 | 1008.5 |
| 20260507004900 | 56 | 207 | 2.0 | 2.0 | 0.00 | 0.02 | 0.02 | 96 | 1008.3 |
| 20260507004357 | 56 | 251 | 2.0 | 3.0 | 0.00 | 0.02 | 0.02 | 96 | 1008.4 |
| 20260507003854 | 56 | 185 | 2.0 | 2.0 | 0.00 | 0.02 | 0.02 | 96 | 1008.4 |
| 20260507003349 | 56 | 232 | 2.0 | 2.0 | 0.00 | 0.02 | 0.02 | 96 | 1008.6 |
| 20260507002844 | 56 | 250 | 2.0 | 2.0 | 0.00 | 0.02 | 0.02 | 96 | 1008.3 |
| 20260507002341 | 56 | 170 | 0.0 | 0.0 | 0.00 | 0.02 | 0.02 | 96 | 1008.4 |
| 20260507001838 | 56 | 213 | 2.0 | 2.0 | 0.00 | 0.02 | 0.02 | 96 | 1008.4 |
| 20260507001335 | 56 | 251 | 2.0 | 3.0 | 0.00 | 0.02 | 0.02 | 96 | 1008.5 |
| 20260507000831 | 56 | 257 | 1.0 | 1.0 | 0.00 | 0.02 | 0.02 | 96 | 1008.3 |
| 20260507000328 | 56 | 163 | 4.0 | 6.0 | 0.00 | 0.02 | 0.02 | 96 | 1008.4 |
| 20260506235824 | 56 | 187 | 2.0 | 3.0 | 0.00 | 0.02 | 0.02 | 96 | 1008.4 |
| 20260506235320 | 56 | 206 | 2.0 | 2.0 | 0.00 | 0.02 | 0.02 | 96 | 1008.3 |
| 20260506234816 | 56 | 201 | 2.0 | 2.0 | 0.00 | 0.02 | 0.02 | 96 | 1008.4 |
| 20260506234314 | 55 | 238 | 2.0 | 3.0 | 0.00 | 0.02 | 0.02 | 96 | 1008.3 |
| 20260506233812 | 55 | 244 | 3.0 | 3.0 | 0.00 | 0.02 | 0.02 | 96 | 1008.3 |
| 20260506233307 | 55 | 210 | 3.0 | 3.0 | 0.00 | 0.02 | 0.02 | 96 | 1008.0 |
| 20260506232804 | 55 | 214 | 3.0 | 3.0 | 0.00 | 0.02 | 0.02 | 96 | 1008.2 |
| 20260506232300 | 55 | 208 | 2.0 | 2.0 | 0.00 | 0.02 | 0.02 | 95 | 1008.3 |
| 20260506231757 | 55 | 196 | 3.0 | 4.0 | 0.00 | 0.02 | 0.02 | 95 | 1008.3 |
| 20260506231255 | 55 | 200 | 4.0 | 4.0 | 0.00 | 0.02 | 0.02 | 95 | 1008.3 |
| 20260506230752 | 55 | 218 | 2.0 | 3.0 | 0.00 | 0.02 | 0.02 | 95 | 1008.6 |
| 20260506230249 | 55 | 219 | 2.0 | 3.0 | 0.00 | 0.02 | 0.02 | 95 | 1008.5 |
| 20260506225745 | 55 | 256 | 1.0 | 2.0 | 0.00 | 0.02 | 0.02 | 95 | 1008.4 |
| 20260506225242 | 55 | 211 | 2.0 | 2.0 | 0.00 | 0.02 | 0.02 | 95 | 1008.3 |
| 20260506224738 | 55 | 211 | 6.0 | 7.0 | 0.00 | 0.02 | 0.02 | 95 | 1008.4 |
| 20260506224236 | 55 | 194 | 5.0 | 6.0 | 0.07 | 0.02 | 0.02 | 94 | 1008.1 |
| 20260506223732 | 56 | 194 | 1.0 | 1.0 | 0.07 | 0.02 | 0.02 | 94 | 1008.2 |
| 20260506223228 | 56 | 191 | 3.0 | 3.0 | 0.00 | 0.01 | 0.01 | 94 | 1008.1 |
| 20260506222725 | 56 | 230 | 4.0 | 4.0 | 0.00 | 0.01 | 0.01 | 94 | 1008.4 |
| 20260506222220 | 56 | 231 | 3.0 | 3.0 | 0.00 | 0.01 | 0.01 | 94 | 1008.3 |
| 20260506221719 | 56 | 225 | 3.0 | 3.0 | 0.00 | 0.01 | 0.01 | 94 | 1008.3 |
| 20260506221217 | 56 | 215 | 2.0 | 3.0 | 0.00 | 0.01 | 0.01 | 94 | 1008.4 |
| 20260506220714 | 56 | 233 | 2.0 | 2.0 | 0.00 | 0.01 | 0.01 | 94 | 1008.7 |
| 20260506220208 | 56 | 209 | 1.0 | 2.0 | 0.00 | 0.01 | 0.01 | 94 | 1008.8 |
| 20260506215705 | 56 | 225 | 5.0 | 7.0 | 0.00 | 0.01 | 0.01 | 94 | 1008.8 |
| 20260506215200 | 56 | 219 | 2.0 | 3.0 | 0.00 | 0.01 | 0.01 | 94 | 1008.9 |
| 20260506214657 | 56 | 242 | 2.0 | 4.0 | 0.00 | 0.01 | 0.01 | 94 | 1008.8 |
| 20260506214155 | 56 | 243 | 3.0 | 4.0 | 0.00 | 0.01 | 0.01 | 93 | 1008.4 |
| 20260506213653 | 56 | 203 | 4.0 | 6.0 | 0.00 | 0.01 | 0.01 | 93 | 1008.7 |
| 20260506213150 | 57 | 252 | 4.0 | 6.0 | 0.00 | 0.01 | 0.01 | 92 | 1008.9 |
| 20260506212647 | 57 | 250 | 3.0 | 4.0 | 0.00 | 0.01 | 0.01 | 92 | 1008.8 |
| 20260506212142 | 57 | 264 | 3.0 | 4.0 | 0.00 | 0.01 | 0.01 | 92 | 1008.8 |
| 20260506211638 | 57 | 247 | 3.0 | 4.0 | 0.00 | 0.01 | 0.01 | 92 | 1008.9 |
| 20260506211135 | 57 | 205 | 4.0 | 6.0 | 0.00 | 0.01 | 0.01 | 92 | 1008.9 |
| 20260506210632 | 57 | 212 | 3.0 | 4.0 | 0.00 | 0.01 | 0.01 | 91 | 1008.9 |
| 20260506210129 | 57 | 182 | 4.0 | 6.0 | 0.00 | 0.01 | 0.01 | 91 | 1009.0 |
| 20260506205626 | 58 | 252 | 4.0 | 6.0 | 0.00 | 0.01 | 0.01 | 90 | 1009.1 |
| 20260506205126 | 58 | 180 | 3.0 | 3.0 | 0.00 | 0.01 | 0.01 | 90 | 1008.8 |
| 20260506204624 | 58 | 249 | 3.0 | 3.0 | 0.00 | 0.01 | 0.01 | 90 | 1009.3 |
| 20260506204121 | 58 | 208 | 3.0 | 4.0 | 0.00 | 0.01 | 0.01 | 90 | 1009.1 |
| 20260506203619 | 58 | 195 | 2.0 | 3.0 | 0.00 | 0.01 | 0.01 | 90 | 1009.0 |
| 20260506203115 | 58 | 218 | 2.0 | 3.0 | 0.00 | 0.01 | 0.01 | 90 | 1009.2 |
| 20260506202613 | 58 | 218 | 2.0 | 3.0 | 0.00 | 0.01 | 0.01 | 90 | 1009.3 |
| 20260506202109 | 58 | 231 | 4.0 | 4.0 | 0.00 | 0.01 | 0.01 | 90 | 1009.3 |
| 20260506201607 | 58 | 247 | 3.0 | 3.0 | 0.00 | 0.01 | 0.01 | 90 | 1009.3 |
| 20260506201103 | 58 | 220 | 3.0 | 3.0 | 0.00 | 0.01 | 0.01 | 90 | 1009.3 |
| 20260506200559 | 59 | 214 | 4.0 | 7.0 | 0.00 | 0.01 | 0.01 | 90 | 1009.4 |
| 20260506200056 | 59 | 248 | 4.0 | 6.0 | 0.00 | 0.01 | 0.01 | 90 | 1009.5 |
| 20260506195553 | 59 | 173 | 3.0 | 3.0 | 0.07 | 0.01 | 0.01 | 90 | 1009.3 |
| 20260506195049 | 59 | 222 | 3.0 | 3.0 | 0.07 | 0.01 | 0.01 | 89 | 1009.4 |
| 20260506194547 | 59 | 246 | 3.0 | 3.0 | 0.00 | 0.00 | 0.00 | 88 | 1009.6 |
| 20260506194043 | 60 | 191 | 5.0 | 6.0 | 0.00 | 0.00 | 0.00 | 87 | 1009.7 |
| 20260506193541 | 60 | 201 | 3.0 | 3.0 | 0.00 | 0.00 | 0.00 | 86 | 1009.6 |